Aviation Digital Data Service (ADDS)

Output produced by METARs form (0410 UTC 24 August 2019)
found at http://www.aviationweather.gov/metar/data/
 
Forecast for: EDVE (BRAUNSCHWEIG , DE)
Text: TAF EDVE 231700Z 2318/2321 05003KT CAVOK
Forecast period: 1800 to 2100 UTC 23 August 2019
Forecast type: FROM: standard forecast or significant change
Winds: from the NE (50 degrees) at 3 MPH (3 knots; 1.5 m/s)
Visibility: 6 or more miles 10+ km)
Ceiling: unknown
Clouds: missing
Weather: NSW  (no significant weather)